KTMA/TMA METAR and TAF weather

Enter ICAO airport designator
Station Type Date Time Source
KTMA METAR 2022/01/26 13:35 UTC NOAA

KTMA 261335Z AUTO 01005KT 10SM OVC120 07/05 A3017 RMK AO2 T00740048


Station Type Date Time Source
KTMA Decoded METAR 2022/01/26 13:35 UTC NOAA

Station name not available
Jan 26, 2022 - 08:35 AM EST / 2022.01.26 1335 UTC
Wind: from the N (010 degrees) at 6 MPH (5 KT):0
Visibility: 10 mile(s):0
Sky conditions: overcast
Temperature: 45.3 F (7.4 C)
Dew Point: 40.6 F (4.8 C)
Relative Humidity: 83%
Pressure (altimeter): 30.17 in. Hg (1021 hPa)
ob: KTMA 261335Z AUTO 01005KT 10SM OVC120 07/05 A3017 RMK AO2 T00740048
cycle: 13

Station Type Date Time Source
KTMA TAF UTC NOAA

Error!

Example: see airport list